createdAt,value
2018-04-19T00:05:32.603Z,101941.02
2018-04-19T00:06:35.079Z,101944.60
2018-04-19T00:07:37.562Z,101944.76
2018-04-19T00:08:40.056Z,101944.76
2018-04-19T00:09:42.576Z,101940.45
2018-04-19T00:10:45.106Z,101942.40
2018-04-19T00:11:47.676Z,101942.40
2018-04-19T00:12:50.168Z,101941.99
2018-04-19T00:13:52.650Z,101941.02
2018-04-19T00:14:55.145Z,101944.76
2018-04-19T00:15:57.641Z,101949.72
2018-04-19T00:17:00.159Z,101942.81
2018-04-19T00:18:02.649Z,101939.23
2018-04-19T00:19:05.148Z,101947.93
2018-04-19T00:20:07.683Z,101945.57
2018-04-19T00:21:10.179Z,101942.40
2018-04-19T00:22:12.695Z,101939.64
2018-04-19T00:23:15.188Z,101940.61
2018-04-19T00:24:17.668Z,101944.19
2018-04-19T00:25:20.195Z,101941.68
2018-04-19T00:26:22.759Z,101944.03
2018-04-19T00:27:25.265Z,101933.55
2018-04-19T00:28:27.773Z,101933.39
2018-04-19T00:29:30.246Z,101936.56
2018-04-19T00:30:32.921Z,101938.91
2018-04-19T00:31:35.417Z,101937.53
2018-04-19T00:32:37.947Z,101936.56
2018-04-19T00:33:40.437Z,101936.56
2018-04-19T00:34:42.943Z,101934.36
2018-04-19T00:35:45.444Z,101930.62
2018-04-19T00:36:47.946Z,101934.05
2018-04-19T00:37:50.433Z,101924.94
2018-04-19T00:38:52.989Z,101925.34
2018-04-19T00:39:55.477Z,101930.88
2018-04-19T00:40:57.972Z,101928.36
2018-04-19T00:42:00.468Z,101935.12
2018-04-19T00:43:03.092Z,101933.73
2018-04-19T00:44:05.585Z,101928.05
2018-04-19T00:45:08.088Z,101933.42
2018-04-19T00:46:10.601Z,101921.39
2018-04-19T00:47:13.085Z,101920.42
2018-04-19T00:48:15.574Z,101921.64
2018-04-19T00:49:18.073Z,101922.63
2018-04-19T00:50:20.581Z,101918.31
2018-04-19T00:51:23.123Z,101924.66
2018-04-19T00:52:37.493Z,101919.54
2018-04-19T00:53:39.996Z,101920.11
2018-04-19T00:54:42.489Z,101925.07
2018-04-19T00:55:44.971Z,101921.36
2018-04-19T00:56:47.475Z,101920.52
2018-04-19T00:57:49.961Z,101920.52
2018-04-19T00:58:52.453Z,101922.88
2018-04-19T00:59:54.956Z,101915.39
2018-04-19T01:00:57.445Z,101913.61
2018-04-19T01:01:59.971Z,101918.03
2018-04-19T01:03:02.469Z,101911.53
2018-04-19T01:04:04.975Z,101911.94
2018-04-19T01:05:07.479Z,101915.68
2018-04-19T01:06:09.983Z,101912.50
2018-04-19T01:07:12.479Z,101910.56
2018-04-19T01:08:14.956Z,101905.03
2018-04-19T01:09:17.435Z,101908.36
2018-04-19T01:10:19.955Z,101911.69
2018-04-19T01:11:22.452Z,101902.95
2018-04-19T01:12:24.962Z,101905.31
2018-04-19T01:13:27.468Z,101903.11
2018-04-19T01:14:29.981Z,101909.61
2018-04-19T01:15:32.464Z,101909.61
2018-04-19T01:16:34.976Z,101904.09
2018-04-19T01:17:37.541Z,101903.52
2018-04-19T01:18:40.029Z,101900.76
2018-04-19T01:19:42.573Z,101902.30
2018-04-19T01:20:45.060Z,101900.51
2018-04-19T01:21:47.568Z,101902.86
2018-04-19T01:22:50.068Z,101902.45
2018-04-19T01:23:52.561Z,101901.07
2018-04-19T01:24:55.064Z,101892.78
2018-04-19T01:25:57.540Z,101897.90
2018-04-19T01:27:00.052Z,101897.08
2018-04-19T01:28:02.543Z,101898.88
2018-04-19T01:29:05.028Z,101894.32
2018-04-19T01:30:07.517Z,101893.09
2018-04-19T01:31:10.005Z,101897.08
2018-04-19T01:32:12.508Z,101895.70
2018-04-19T01:33:15.003Z,101894.88
2018-04-19T01:34:17.518Z,101894.48
2018-04-19T01:35:20.011Z,101893.34
2018-04-19T01:36:26.349Z,101890.02
2018-04-19T01:37:28.826Z,101893.59
2018-04-19T01:38:31.359Z,101899.38
2018-04-19T01:39:33.830Z,101895.92
2018-04-19T01:40:36.299Z,101891.46
2018-04-19T01:41:38.816Z,101887.72
2018-04-19T01:42:41.309Z,101894.88
2018-04-19T01:43:43.803Z,101891.30
2018-04-19T01:44:46.311Z,101890.17
2018-04-19T01:45:48.803Z,101891.55
2018-04-19T01:46:51.274Z,101891.81
2018-04-19T01:47:53.848Z,101894.16
2018-04-19T01:48:56.357Z,101888.06
2018-04-19T01:49:58.863Z,101892.38
2018-04-19T01:51:01.353Z,101892.13
2018-04-19T01:52:03.850Z,101894.88
2018-04-19T01:53:06.444Z,101893.66
2018-04-19T01:54:08.971Z,101891.46
2018-04-19T01:55:11.488Z,101889.27
2018-04-19T01:56:13.963Z,101889.83
2018-04-19T01:57:16.457Z,101891.21
2018-04-19T01:58:18.954Z,101888.20
2018-04-19T01:59:21.497Z,101897.99
2018-04-19T02:00:23.987Z,101889.30
2018-04-19T02:01:26.463Z,101888.06
2018-04-19T02:02:28.953Z,101890.42
2018-04-19T02:03:31.479Z,101891.39
2018-04-19T02:04:33.970Z,101895.13
2018-04-19T02:05:36.529Z,101892.78
2018-04-19T02:06:39.108Z,101895.29
2018-04-19T02:07:41.609Z,101895.70
2018-04-19T02:08:44.098Z,101890.73
2018-04-19T02:09:46.603Z,101889.36
2018-04-19T02:10:49.071Z,101893.09
2018-04-19T02:11:51.565Z,101898.63
2018-04-19T02:12:54.039Z,101899.44
2018-04-19T02:13:56.537Z,101890.33
2018-04-19T02:14:59.064Z,101893.25
2018-04-19T02:16:01.565Z,101894.63
2018-04-19T02:17:04.061Z,101896.02
2018-04-19T02:18:06.545Z,101888.70
2018-04-19T02:19:09.025Z,101891.05
2018-04-19T02:20:11.547Z,101892.02
2018-04-19T02:21:14.041Z,101885.11
2018-04-19T02:22:16.534Z,101882.34
2018-04-19T02:23:19.148Z,101888.85
2018-04-19T02:24:21.709Z,101886.91
2018-04-19T02:25:24.218Z,101888.29
2018-04-19T02:26:26.705Z,101880.41
2018-04-19T02:27:29.285Z,101881.37
2018-04-19T02:28:31.902Z,101886.34
2018-04-19T02:29:34.365Z,101887.72
2018-04-19T02:30:36.856Z,101881.22
2018-04-19T02:31:39.345Z,101886.59
2018-04-19T02:32:41.838Z,101880.66
2018-04-19T02:33:44.344Z,101881.06
2018-04-19T02:34:46.827Z,101878.86
2018-04-19T02:35:49.320Z,101879.27
2018-04-19T02:36:51.814Z,101881.63
2018-04-19T02:37:54.287Z,101878.30
2018-04-19T02:38:56.769Z,101878.70
2018-04-19T02:39:59.251Z,101876.77
2018-04-19T02:41:01.747Z,101876.35
2018-04-19T02:42:04.255Z,101875.95
2018-04-19T02:43:06.740Z,101869.59
2018-04-19T02:44:09.286Z,101877.89
2018-04-19T02:45:11.781Z,101869.03
2018-04-19T02:46:14.319Z,101879.12
2018-04-19T02:47:16.901Z,101871.95
2018-04-19T02:48:19.462Z,101872.77
2018-04-19T02:49:21.956Z,101870.98
2018-04-19T02:50:24.487Z,101876.92
2018-04-19T02:51:26.987Z,101874.56
2018-04-19T02:52:29.477Z,101870.42
2018-04-19T02:53:31.988Z,101873.18
2018-04-19T02:54:34.495Z,101874.72
2018-04-19T02:55:36.971Z,101871.80
2018-04-19T02:56:39.499Z,101878.14
2018-04-19T02:57:41.975Z,101876.20
2018-04-19T02:58:44.472Z,101873.59
2018-04-19T02:59:46.965Z,101873.59
2018-04-19T03:00:49.479Z,101870.42
2018-04-19T03:01:52.008Z,101874.00
2018-04-19T03:02:54.510Z,101877.58
2018-04-19T03:03:57.005Z,101874.97
2018-04-19T03:04:59.511Z,101874.41
2018-04-19T03:06:02.017Z,101874.41
2018-04-19T03:07:04.612Z,101872.05
2018-04-19T03:08:07.091Z,101880.19
2018-04-19T03:09:09.573Z,101877.58
2018-04-19T03:10:12.067Z,101871.08
2018-04-19T03:11:14.564Z,101871.64
2018-04-19T03:12:17.076Z,101868.06
2018-04-19T03:13:19.576Z,101868.06
2018-04-19T03:14:22.060Z,101863.51
2018-04-19T03:15:24.592Z,101867.66
2018-04-19T03:16:27.108Z,101862.12
2018-04-19T03:17:29.610Z,101862.53
2018-04-19T03:18:32.119Z,101863.91
2018-04-19T03:19:34.611Z,101864.32
2018-04-19T03:20:37.091Z,101865.30
2018-04-19T03:21:39.591Z,101858.80
2018-04-19T03:22:42.104Z,101859.45
2018-04-19T03:23:44.587Z,101864.01
2018-04-19T03:24:47.058Z,101859.86
2018-04-19T03:25:49.547Z,101859.05
2018-04-19T03:26:52.132Z,101859.20
2018-04-19T03:27:54.635Z,101855.05
2018-04-19T03:28:57.217Z,101856.44
2018-04-19T03:29:59.673Z,101857.82
2018-04-19T03:31:02.171Z,101856.44
2018-04-19T03:32:04.657Z,101858.80
2018-04-19T03:33:07.170Z,101857.41
2018-04-19T03:34:09.651Z,101854.23
2018-04-19T03:35:12.159Z,101857.00
2018-04-19T03:36:14.648Z,101863.09
2018-04-19T03:37:17.168Z,101861.15
2018-04-19T03:38:19.686Z,101859.36
2018-04-19T03:39:22.199Z,101856.19
2018-04-19T03:40:24.687Z,101857.31
2018-04-19T03:41:27.189Z,101859.77
2018-04-19T03:42:29.695Z,101857.16
2018-04-19T03:43:32.199Z,101852.61
2018-04-19T03:44:34.666Z,101857.73
2018-04-19T03:45:37.161Z,101856.75
2018-04-19T03:46:39.649Z,101848.05
2018-04-19T03:47:42.143Z,101850.81
2018-04-19T03:48:44.672Z,101849.28
2018-04-19T03:49:47.177Z,101849.02
2018-04-19T03:50:49.688Z,101848.87
2018-04-19T03:51:52.202Z,101849.69
2018-04-19T03:52:54.698Z,101850.25
2018-04-19T03:53:57.256Z,101847.73
2018-04-19T03:54:59.746Z,101848.30
2018-04-19T03:56:02.222Z,101849.69
2018-04-19T03:57:04.727Z,101846.92
2018-04-19T03:58:07.236Z,101844.00
2018-04-19T03:59:09.745Z,101846.77
2018-04-19T04:00:12.221Z,101845.38
2018-04-19T04:01:14.775Z,101840.27
2018-04-19T04:02:17.230Z,101842.05
2018-04-19T04:03:19.796Z,101845.79
2018-04-19T04:04:22.356Z,101842.05
2018-04-19T04:05:24.845Z,101841.08
2018-04-19T04:06:27.342Z,101843.44
2018-04-19T04:07:29.853Z,101842.87
2018-04-19T04:08:32.345Z,101845.63
2018-04-19T04:09:34.853Z,101847.58
2018-04-19T04:10:37.345Z,101845.22
2018-04-19T04:11:39.842Z,101843.59
2018-04-19T04:12:42.337Z,101842.20
2018-04-19T04:13:44.825Z,101843.44
2018-04-19T04:14:47.318Z,101842.62
2018-04-19T04:15:49.824Z,101835.30
2018-04-19T04:17:04.221Z,101838.06
2018-04-19T04:18:18.549Z,101840.42
2018-04-19T04:19:32.961Z,101841.80
2018-04-19T04:20:47.244Z,101835.05
2018-04-19T04:22:01.570Z,101839.60
2018-04-19T04:23:24.824Z,101837.81
2018-04-19T04:24:27.331Z,101834.08
2018-04-19T04:25:29.841Z,101833.66
2018-04-19T04:26:32.348Z,101838.62
2018-04-19T04:27:34.857Z,101838.38
2018-04-19T04:28:37.352Z,101835.61
2018-04-19T04:29:39.872Z,101839.60
2018-04-19T04:30:42.378Z,101837.81
2018-04-19T04:31:44.895Z,101840.27
2018-04-19T04:32:47.380Z,101833.92
2018-04-19T04:33:49.872Z,101833.92
2018-04-19T04:34:52.366Z,101839.85
2018-04-19T04:35:54.868Z,101839.04
2018-04-19T04:36:57.375Z,101839.85
2018-04-19T04:37:59.873Z,101836.52
2018-04-19T04:39:02.388Z,101839.45
2018-04-19T04:40:04.866Z,101838.06
2018-04-19T04:41:07.388Z,101830.75
2018-04-19T04:42:09.911Z,101836.93
2018-04-19T04:43:12.406Z,101837.91
2018-04-19T04:44:14.919Z,101838.47
2018-04-19T04:45:17.397Z,101836.52
2018-04-19T04:46:19.921Z,101835.87
2018-04-19T04:47:22.429Z,101839.45
2018-04-19T04:48:24.936Z,101835.30
2018-04-19T04:49:27.440Z,101839.85
2018-04-19T04:50:29.941Z,101838.47
2018-04-19T04:51:32.467Z,101836.68
2018-04-19T04:52:34.962Z,101831.97
2018-04-19T04:53:37.457Z,101836.68
2018-04-19T04:54:39.971Z,101838.47
2018-04-19T04:55:42.457Z,101840.83
2018-04-19T04:56:44.984Z,101838.47
2018-04-19T04:57:47.459Z,101842.62
2018-04-19T04:58:49.957Z,101831.16
2018-04-19T04:59:52.465Z,101838.62
2018-04-19T05:00:54.997Z,101834.48
2018-04-19T05:01:57.506Z,101836.68
2018-04-19T05:02:59.995Z,101843.59
2018-04-19T05:04:02.476Z,101845.54
2018-04-19T05:05:04.962Z,101842.94
2018-04-19T05:06:07.459Z,101846.52
2018-04-19T05:07:09.988Z,101844.72
2018-04-19T05:08:12.489Z,101845.12
2018-04-19T05:09:14.977Z,101842.37
2018-04-19T05:10:17.535Z,101841.55
2018-04-19T05:11:20.047Z,101841.95
2018-04-19T05:12:22.549Z,101844.31
2018-04-19T05:13:25.151Z,101844.72
2018-04-19T05:14:27.714Z,101845.70
2018-04-19T05:15:30.175Z,101848.05
2018-04-19T05:16:32.679Z,101844.88
2018-04-19T05:17:35.172Z,101844.31
2018-04-19T05:18:37.645Z,101845.29
2018-04-19T05:19:40.137Z,101849.84
2018-04-19T05:20:42.664Z,101849.19
2018-04-19T05:21:45.239Z,101851.38
2018-04-19T05:22:47.763Z,101847.23
2018-04-19T05:23:50.234Z,101855.53
2018-04-19T05:24:52.737Z,101850.00
2018-04-19T05:25:55.227Z,101847.39
2018-04-19T05:26:57.712Z,101849.75
2018-04-19T05:28:00.256Z,101848.94
2018-04-19T05:29:02.749Z,101849.34
2018-04-19T05:30:05.259Z,101849.34
2018-04-19T05:31:07.827Z,101855.84
2018-04-19T05:32:10.317Z,101851.13
2018-04-19T05:33:12.838Z,101849.75
2018-04-19T05:34:15.366Z,101854.30
2018-04-19T05:35:17.865Z,101848.94
2018-04-19T05:36:20.358Z,101854.05
2018-04-19T05:37:22.839Z,101856.00
2018-04-19T05:38:25.343Z,101853.64
2018-04-19T05:39:27.921Z,101858.61
2018-04-19T05:40:30.408Z,101850.87
2018-04-19T05:41:32.916Z,101851.70
2018-04-19T05:42:35.396Z,101859.42
2018-04-19T05:43:37.895Z,101854.30
2018-04-19T05:44:40.376Z,101855.69
2018-04-19T05:45:43.021Z,101848.77
2018-04-19T05:46:45.495Z,101854.30
2018-04-19T05:47:47.982Z,101850.97
2018-04-19T05:48:50.505Z,101856.91
2018-04-19T05:49:52.997Z,101854.39
2018-04-19T05:50:55.503Z,101858.14
2018-04-19T05:51:57.989Z,101863.09
2018-04-19T05:53:00.506Z,101859.17
2018-04-19T05:54:03.021Z,101860.14
2018-04-19T05:55:05.535Z,101863.06
2018-04-19T05:56:08.043Z,101865.73
2018-04-19T05:57:10.554Z,101862.31
2018-04-19T05:58:13.054Z,101862.38
2018-04-19T05:59:15.561Z,101856.19
2018-04-19T06:00:18.065Z,101861.91
2018-04-19T06:01:20.557Z,101863.25
2018-04-19T06:02:23.048Z,101865.26
2018-04-19T06:03:25.538Z,101864.47
2018-04-19T06:04:28.059Z,101868.77
2018-04-19T06:05:30.568Z,101865.88
2018-04-19T06:06:33.062Z,101860.92
2018-04-19T06:07:35.557Z,101866.45
2018-04-19T06:08:38.114Z,101869.20
2018-04-19T06:09:40.596Z,101854.02
2018-04-19T06:10:43.103Z,101865.22
2018-04-19T06:11:45.589Z,101863.17
2018-04-19T06:12:48.076Z,101862.11
2018-04-19T06:13:50.616Z,101865.13
2018-04-19T06:14:53.125Z,101867.88
2018-04-19T06:15:55.606Z,101856.11
2018-04-19T06:16:58.091Z,101856.93
2018-04-19T06:18:00.585Z,101856.77
2018-04-19T06:19:03.133Z,101862.05
2018-04-19T06:20:05.637Z,101864.72
2018-04-19T06:21:08.172Z,101861.70
2018-04-19T06:22:10.684Z,101864.21
2018-04-19T06:23:13.157Z,101865.34
2018-04-19T06:24:15.659Z,101858.59
2018-04-19T06:25:18.159Z,101864.11
2018-04-19T06:26:20.645Z,101858.49
2018-04-19T06:27:23.155Z,101863.77
2018-04-19T06:28:25.691Z,101861.16
2018-04-19T06:29:28.248Z,101865.77
2018-04-19T06:30:30.794Z,101857.48
2018-04-19T06:31:33.355Z,101860.66
2018-04-19T06:32:35.884Z,101859.42
2018-04-19T06:33:38.389Z,101858.45
2018-04-19T06:34:40.884Z,101862.72
2018-04-19T06:35:43.399Z,101862.31
2018-04-19T06:36:45.907Z,101868.41
2018-04-19T06:37:48.400Z,101861.22
2018-04-19T06:38:50.909Z,101867.16
2018-04-19T06:39:53.404Z,101861.63
2018-04-19T06:40:55.931Z,101862.03
2018-04-19T06:41:58.415Z,101865.61
2018-04-19T06:43:00.923Z,101863.41
2018-04-19T06:44:03.403Z,101865.86
2018-04-19T06:45:05.904Z,101867.66
2018-04-19T06:46:08.457Z,101869.45
2018-04-19T06:47:11.007Z,101865.15
2018-04-19T06:48:13.482Z,101865.96
2018-04-19T06:49:16.061Z,101866.38
2018-04-19T06:50:18.545Z,101865.81
2018-04-19T06:51:21.138Z,101864.27
2018-04-19T06:52:23.607Z,101870.20
2018-04-19T06:53:26.100Z,101870.05
2018-04-19T06:54:28.589Z,101867.13
2018-04-19T06:55:31.125Z,101867.37
2018-04-19T06:56:33.684Z,101865.03
2018-04-19T06:57:36.186Z,101858.13
2018-04-19T06:58:38.682Z,101864.46
2018-04-19T06:59:41.173Z,101865.69
2018-04-19T07:00:43.926Z,101864.72
2018-04-19T07:01:46.441Z,101865.53
2018-04-19T07:02:49.137Z,101864.16
2018-04-19T07:03:51.707Z,101867.17
2018-04-19T07:04:54.237Z,101867.98
2018-04-19T07:05:56.721Z,101867.01
2018-04-19T07:06:59.536Z,101866.85
2018-04-19T07:08:02.068Z,101867.01
2018-04-19T07:09:07.277Z,101866.45
2018-04-19T07:10:09.784Z,101863.69
2018-04-19T07:11:12.392Z,101871.81
2018-04-19T07:12:14.911Z,101864.50
2018-04-19T07:13:17.406Z,101870.44
2018-04-19T07:14:19.911Z,101867.67
2018-04-19T07:15:22.397Z,101869.87
2018-04-19T07:16:24.892Z,101869.34
2018-04-19T07:17:27.415Z,101871.25
2018-04-19T07:18:29.890Z,101873.33
2018-04-19T07:19:32.431Z,101874.70
2018-04-19T07:20:34.918Z,101871.38
2018-04-19T07:21:37.415Z,101871.78
2018-04-19T07:22:39.944Z,101874.80
2018-04-19T07:23:42.447Z,101873.02
2018-04-19T07:24:44.952Z,101874.27
2018-04-19T07:25:47.783Z,101874.67
2018-04-19T07:26:50.279Z,101868.33
2018-04-19T07:27:52.840Z,101874.67
2018-04-19T07:28:55.401Z,101870.94
2018-04-19T07:29:57.928Z,101877.13
2018-04-19T07:31:00.462Z,101872.98
2018-04-19T07:32:03.014Z,101875.75
2018-04-19T07:33:05.507Z,101875.34
2018-04-19T07:34:07.998Z,101874.77
2018-04-19T07:35:10.471Z,101876.00
2018-04-19T07:36:12.974Z,101874.77
2018-04-19T07:37:15.490Z,101871.85
2018-04-19T07:38:18.090Z,101879.98
2018-04-19T07:39:20.649Z,101869.34
2018-04-19T07:40:23.129Z,101878.04
2018-04-19T07:41:25.621Z,101880.39
2018-04-19T07:42:28.147Z,101873.73
2018-04-19T07:43:30.648Z,101875.69
2018-04-19T07:44:33.136Z,101876.91
2018-04-19T07:45:35.611Z,101870.82
2018-04-19T07:46:38.089Z,101870.91
2018-04-19T07:47:40.580Z,101871.58
2018-04-19T07:48:43.093Z,101873.77
2018-04-19T07:49:45.592Z,101876.38
2018-04-19T07:50:48.105Z,101875.66
2018-04-19T07:51:50.634Z,101874.69
2018-04-19T07:52:53.141Z,101874.15
2018-04-19T07:53:55.665Z,101876.34
2018-04-19T07:54:58.139Z,101873.59
2018-04-19T07:56:00.632Z,101872.45
2018-04-19T07:57:03.106Z,101871.08
2018-04-19T07:58:05.631Z,101876.03
2018-04-19T07:59:08.127Z,101868.72
2018-04-19T08:00:10.625Z,101866.61
2018-04-19T08:01:13.102Z,101875.56
2018-04-19T08:02:15.593Z,101870.60
2018-04-19T08:03:18.068Z,101871.27
2018-04-19T08:04:20.586Z,101867.69
2018-04-19T08:05:23.127Z,101872.80
2018-04-19T08:06:25.637Z,101872.64
2018-04-19T08:07:28.129Z,101875.00
2018-04-19T08:08:30.629Z,101874.03
2018-04-19T08:09:33.171Z,101871.11
2018-04-19T08:10:35.652Z,101871.67
2018-04-19T08:11:38.151Z,101871.67
2018-04-19T08:12:40.660Z,101871.67
2018-04-19T08:13:43.159Z,101875.25
2018-04-19T08:14:45.675Z,101871.92
2018-04-19T08:15:48.168Z,101873.30
2018-04-19T08:16:50.658Z,101872.73
2018-04-19T08:17:53.164Z,101875.50
2018-04-19T08:18:55.724Z,101872.73
2018-04-19T08:19:58.198Z,101871.36
2018-04-19T08:21:00.709Z,101861.13
2018-04-19T08:22:03.208Z,101863.88
2018-04-19T08:23:05.694Z,101861.53
2018-04-19T08:24:08.183Z,101865.67
2018-04-19T08:25:10.697Z,101866.48
2018-04-19T08:26:13.189Z,101863.72
2018-04-19T08:27:15.659Z,101866.33
2018-04-19T08:28:18.166Z,101866.73
2018-04-19T08:29:20.647Z,101863.98
2018-04-19T08:30:23.161Z,101868.13
2018-04-19T08:31:25.643Z,101863.00
2018-04-19T08:32:28.130Z,101869.75
2018-04-19T08:33:30.625Z,101867.41
2018-04-19T08:34:33.127Z,101866.84
2018-04-19T08:35:35.745Z,101868.22
2018-04-19T08:36:38.240Z,101861.30
2018-04-19T08:37:40.739Z,101861.97
2018-04-19T08:38:43.248Z,101867.91
2018-04-19T08:39:45.741Z,101860.58
2018-04-19T08:40:48.264Z,101866.52
2018-04-19T08:41:50.750Z,101867.34
2018-04-19T08:42:53.272Z,101864.58
2018-04-19T08:43:55.847Z,101866.20
2018-04-19T08:44:58.340Z,101864.83
2018-04-19T08:46:00.959Z,101863.44
2018-04-19T08:47:03.578Z,101864.70
2018-04-19T08:48:06.088Z,101859.98
2018-04-19T08:49:08.591Z,101860.39
2018-04-19T08:50:11.079Z,101861.63
2018-04-19T08:51:13.601Z,101862.03
2018-04-19T08:52:16.082Z,101865.20
2018-04-19T08:53:18.571Z,101866.42
2018-04-19T08:54:21.065Z,101865.86
2018-04-19T08:55:23.571Z,101862.12
2018-04-19T08:56:26.143Z,101857.41
2018-04-19T08:57:28.627Z,101857.41
2018-04-19T08:58:31.133Z,101855.46
2018-04-19T08:59:33.783Z,101860.02
2018-04-19T09:00:36.284Z,101856.28
2018-04-19T09:01:38.815Z,101864.01
2018-04-19T09:02:41.382Z,101859.30
2018-04-19T09:03:43.965Z,101857.50
2018-04-19T09:04:46.461Z,101857.09
2018-04-19T09:05:48.979Z,101860.52
2018-04-19T09:06:51.546Z,101858.56
2018-04-19T09:07:54.088Z,101855.80
2018-04-19T09:08:56.600Z,101859.39
2018-04-19T09:09:59.104Z,101857.03
2018-04-19T09:11:01.584Z,101857.44
2018-04-19T09:12:04.119Z,101853.29
2018-04-19T09:13:06.612Z,101853.13
2018-04-19T09:14:09.147Z,101850.21
2018-04-19T09:15:11.624Z,101856.72
2018-04-19T09:16:14.134Z,101853.79
2018-04-19T09:17:16.656Z,101850.05
2018-04-19T09:18:19.153Z,101840.22
2018-04-19T09:19:21.630Z,101853.63
2018-04-19T09:20:24.135Z,101851.12
2018-04-19T09:21:26.644Z,101852.25
2018-04-19T09:22:29.174Z,101845.02
2018-04-19T09:23:31.687Z,101850.96
2018-04-19T09:24:34.207Z,101850.96
2018-04-19T09:25:36.700Z,101854.13
2018-04-19T09:26:39.308Z,101843.33
2018-04-19T09:27:41.848Z,101837.80
2018-04-19T09:28:44.372Z,101837.80
2018-04-19T09:29:46.880Z,101839.05
2018-04-19T09:30:49.378Z,101840.97
2018-04-19T09:31:51.897Z,101836.28
2018-04-19T09:32:54.466Z,101837.52
2018-04-19T09:33:56.974Z,101837.11
2018-04-19T09:34:59.476Z,101836.95
2018-04-19T09:36:01.997Z,101837.36
2018-04-19T09:37:04.525Z,101836.38
2018-04-19T09:38:07.063Z,101838.17
2018-04-19T09:39:09.559Z,101838.42
2018-04-19T09:40:12.076Z,101837.45
2018-04-19T09:41:14.581Z,101835.09
2018-04-19T09:42:17.099Z,101832.73
2018-04-19T09:43:19.612Z,101830.37
2018-04-19T09:44:22.162Z,101831.59
2018-04-19T09:45:24.657Z,101829.65
2018-04-19T09:46:27.144Z,101826.88
2018-04-19T09:47:29.796Z,101830.47
2018-04-19T09:48:32.361Z,101831.44
2018-04-19T09:49:34.878Z,101835.84
2018-04-19T09:50:37.350Z,101831.13
2018-04-19T09:51:39.845Z,101830.15
2018-04-19T09:52:42.334Z,101834.95
2018-04-19T09:53:44.836Z,101824.05
2018-04-19T09:54:47.320Z,101827.47
2018-04-19T09:55:49.812Z,101830.81
2018-04-19T09:56:52.297Z,101833.41
2018-04-19T09:58:06.608Z,101827.72
2018-04-19T09:59:13.880Z,101829.52
2018-04-19T10:00:16.387Z,101827.00
2018-04-19T10:01:18.889Z,101828.38
2018-04-19T10:02:26.905Z,101821.88
2018-04-19T10:03:29.382Z,101821.47
2018-04-19T10:04:33.868Z,101826.02
2018-04-19T10:05:42.068Z,101827.25
2018-04-19T10:06:44.557Z,101821.72
2018-04-19T10:07:47.061Z,101824.89
2018-04-19T10:08:49.571Z,101819.36
2018-04-19T10:09:52.101Z,101822.78
2018-04-19T10:10:54.593Z,101826.93
2018-04-19T10:11:57.098Z,101820.17
2018-04-19T10:12:59.594Z,101827.75
2018-04-19T10:14:02.074Z,101822.66
2018-04-19T10:15:04.649Z,101821.27
2018-04-19T10:16:11.109Z,101812.81
2018-04-19T10:17:13.717Z,101817.94
2018-04-19T10:18:16.206Z,101814.20
2018-04-19T10:19:18.705Z,101815.42
2018-04-19T10:20:21.220Z,101811.27
2018-04-19T10:21:24.634Z,101808.51
2018-04-19T10:22:27.128Z,101813.47
2018-04-19T10:23:29.631Z,101798.67
2018-04-19T10:24:32.112Z,101805.42
2018-04-19T10:25:34.617Z,101802.25
2018-04-19T10:26:37.137Z,101803.06
2018-04-19T10:27:39.694Z,101803.48
2018-04-19T10:28:42.256Z,101799.98
2018-04-19T10:29:44.814Z,101805.11
2018-04-19T10:30:47.374Z,101805.11
2018-04-19T10:31:49.859Z,101800.55
2018-04-19T10:32:52.399Z,101795.83
2018-04-19T10:33:54.877Z,101793.06
2018-04-19T10:34:57.362Z,101790.14
2018-04-19T10:35:59.856Z,101797.06
2018-04-19T10:37:02.353Z,101795.52
2018-04-19T10:38:04.856Z,101791.37
2018-04-19T10:39:07.353Z,101793.41
2018-04-19T10:40:09.841Z,101795.77
2018-04-19T10:41:12.400Z,101795.20
2018-04-19T10:42:14.888Z,101789.66
2018-04-19T10:43:17.412Z,101792.84
2018-04-19T10:44:19.904Z,101792.27
2018-04-19T10:45:22.398Z,101788.12
2018-04-19T10:46:24.958Z,101785.77
2018-04-19T10:47:27.445Z,101790.73
2018-04-19T10:48:29.975Z,101786.98
2018-04-19T10:49:32.535Z,101784.62
2018-04-19T10:50:35.095Z,101788.38
2018-04-19T10:51:37.597Z,101787.80
2018-04-19T10:52:40.123Z,101782.68
2018-04-19T10:53:42.609Z,101776.74
2018-04-19T10:54:45.132Z,101776.17
2018-04-19T10:55:47.642Z,101765.92
2018-04-19T10:56:50.157Z,101784.47
2018-04-19T10:57:52.708Z,101779.19
2018-04-19T10:58:55.216Z,101782.52
2018-04-19T10:59:57.691Z,101782.52
2018-04-19T11:01:00.217Z,101779.59
2018-04-19T11:02:02.702Z,101774.47
2018-04-19T11:03:05.216Z,101774.88
2018-04-19T11:04:07.729Z,101776.27
2018-04-19T11:05:10.234Z,101776.67
2018-04-19T11:06:12.711Z,101773.09
2018-04-19T11:07:15.217Z,101775.28
2018-04-19T11:08:17.694Z,101774.72
2018-04-19T11:09:20.166Z,101774.56
2018-04-19T11:10:22.638Z,101771.39
2018-04-19T11:11:25.130Z,101770.41
2018-04-19T11:12:27.643Z,101770.00
2018-04-19T11:13:30.149Z,101767.08
2018-04-19T11:14:32.639Z,101766.95
2018-04-19T11:15:35.133Z,101764.59
2018-04-19T11:16:37.622Z,101762.80
2018-04-19T11:17:40.134Z,101761.25
2018-04-19T11:18:42.674Z,101758.08
2018-04-19T11:19:45.165Z,101760.12
2018-04-19T11:20:47.663Z,101762.73
2018-04-19T11:21:50.186Z,101764.04
2018-04-19T11:22:52.697Z,101761.14
2018-04-19T11:23:55.297Z,101759.03
2018-04-19T11:24:57.811Z,101755.53
2018-04-19T11:26:00.316Z,101757.16
2018-04-19T11:27:02.810Z,101752.86
2018-04-19T11:28:05.357Z,101755.05
2018-04-19T11:29:08.216Z,101759.29
2018-04-19T11:30:10.700Z,101758.06
2018-04-19T11:31:13.202Z,101752.78
2018-04-19T11:32:15.711Z,101751.40
2018-04-19T11:33:18.234Z,101747.41
2018-04-19T11:34:20.739Z,101749.61
2018-04-19T11:35:23.259Z,101742.13
2018-04-19T11:36:25.747Z,101746.84
2018-04-19T11:37:28.357Z,101749.04
2018-04-19T11:38:30.873Z,101746.44
2018-04-19T11:39:33.474Z,101746.84
2018-04-19T11:40:35.953Z,101744.48
2018-04-19T11:41:38.457Z,101746.27
2018-04-19T11:42:40.948Z,101744.89
2018-04-19T11:43:43.448Z,101737.00
2018-04-19T11:44:45.955Z,101741.55
2018-04-19T11:45:48.441Z,101742.37
2018-04-19T11:46:50.933Z,101742.77
2018-04-19T11:47:53.452Z,101740.45
2018-04-19T11:48:55.985Z,101736.02
2018-04-19T11:49:58.495Z,101736.84
2018-04-19T11:51:01.004Z,101741.14
2018-04-19T11:52:03.492Z,101738.37
2018-04-19T11:53:05.985Z,101743.75
2018-04-19T11:54:08.498Z,101740.17
2018-04-19T11:55:11.021Z,101730.89
2018-04-19T11:56:13.575Z,101727.72
2018-04-19T11:57:16.084Z,101731.70
2018-04-19T11:58:18.582Z,101725.77
2018-04-19T11:59:21.095Z,101722.02
2018-04-19T12:00:23.595Z,101721.62